Ansonville, North Carolina
Current Conditions -  °F | °C
As of 2:35 PM on Friday 24 Oct 2014 (Local Time) from KAFP Reporting Station
Clear Clear  
Wind Chill: 70°   Ceiling: Unl
Heat Index: 70°   Visibility: 10mi
Dew Point: 40°   Wind: 0mph
Humidity: 34%   Direction: NA
Pressure: 29.99"   Gusts: NA
Location:  35.1°N, 80.11°W
Report Text: KAFP 241835Z AUTO 00000KT 10SM CLR 21/05 A2999 RMK AO2 T02090046
Loading
Personal Weather Stations






























Interactive Weather Map
Tropical Storm Tracking
New forecast layout! Learn more

10-Day Weather Forecast

Advertisements
Track Severe Weather on mobile